Time;durP1;ratioP1;P1;durP2;ratioP2;P2;SDS_P1;SDS_P2;PMS_P1;PMS_P2;Temp;Humidity;BMP_temperature;BMP_pressure;BME280_temperature;BME280_humidity;BME280_pressure;Samples;Min_cycle;Max_cycle;Signal;HPM_P1;HPM_P2
2022/02/15 00:01:32;;;;;;;4.60;1.70;;;8.00;99.90;;;;;;5072603;28;20376;-54
2022/02/15 00:03:57;;;;;;;4.80;1.40;;;7.80;99.90;;;;;;5071692;28;20410;-55
2022/02/15 00:06:23;;;;;;;5.00;1.40;;;7.80;99.90;;;;;;5072724;28;20379;-55
2022/02/15 00:08:49;;;;;;;4.30;1.40;;;7.80;99.90;;;;;;5050876;28;20436;-53
2022/02/15 00:11:14;;;;;;;4.60;1.20;;;7.70;99.90;;;;;;5062397;28;20453;-55
2022/02/15 00:13:40;;;;;;;4.20;1.40;;;8.50;99.90;;;;;;5070436;28;20423;-58
2022/02/15 00:16:06;;;;;;;3.93;1.30;;;7.70;99.90;;;;;;5072149;28;20426;-54
2022/02/15 00:18:31;;;;;;;4.63;1.40;;;7.60;99.90;;;;;;5072284;28;20411;-55
2022/02/15 00:20:57;;;;;;;4.53;1.30;;;7.70;99.90;;;;;;5071703;28;21045;-54
2022/02/15 00:23:22;;;;;;;5.03;1.60;;;7.50;99.90;;;;;;5071965;28;20404;-54
2022/02/15 00:25:48;;;;;;;4.40;1.30;;;7.60;99.90;;;;;;5068776;28;20479;-55
2022/02/15 00:28:14;;;;;;;4.33;1.40;;;7.60;99.90;;;;;;5072079;28;20869;-55
2022/02/15 00:30:39;;;;;;;4.05;1.20;;;7.60;99.90;;;;;;5071684;28;20914;-58
2022/02/15 00:33:05;;;;;;;4.67;1.20;;;7.70;99.90;;;;;;5072128;28;20834;-55
2022/02/15 00:35:31;;;;;;;4.07;1.30;;;7.70;99.90;;;;;;5072058;28;20395;-55
2022/02/15 00:37:56;;;;;;;3.90;0.90;;;8.50;99.90;;;;;;5061762;28;20730;-54
2022/02/15 00:40:22;;;;;;;4.30;1.10;;;7.80;99.90;;;;;;5072050;28;20441;-55
2022/02/15 00:42:47;;;;;;;4.07;1.10;;;9.50;99.90;;;;;;5067628;28;20399;-55
2022/02/15 00:45:13;;;;;;;3.88;1.00;;;8.80;99.90;;;;;;5071728;28;20391;-55
2022/02/15 00:47:39;;;;;;;4.20;1.20;;;7.90;99.90;;;;;;5071035;28;20396;-58
2022/02/15 00:50:05;;;;;;;3.72;1.10;;;9.20;99.90;;;;;;5071597;28;20392;-55
2022/02/15 00:52:31;;;;;;;4.40;1.13;;;7.70;99.90;;;;;;5071802;28;20482;-55
2022/02/15 00:54:57;;;;;;;4.00;1.10;;;7.70;99.90;;;;;;5071129;28;20530;-55
2022/02/15 00:57:23;;;;;;;4.00;1.17;;;7.70;99.90;;;;;;5071328;28;20421;-54
2022/02/15 00:59:49;;;;;;;4.40;1.10;;;7.60;99.90;;;;;;5070702;28;20384;-54
2022/02/15 01:02:15;;;;;;;3.97;1.20;;;7.40;99.90;;;;;;5071558;28;20474;-55
2022/02/15 01:04:41;;;;;;;3.90;1.10;;;7.30;99.90;;;;;;5070360;28;20399;-58
2022/02/15 01:07:07;;;;;;;4.00;1.20;;;7.30;99.90;;;;;;5071492;28;20737;-54
2022/02/15 01:09:33;;;;;;;3.90;1.10;;;7.30;99.90;;;;;;5071523;28;20383;-53
2022/02/15 01:11:59;;;;;;;5.10;1.40;;;8.90;99.90;;;;;;5070334;28;20384;-52
2022/02/15 01:14:25;;;;;;;4.60;1.30;;;8.10;99.90;;;;;;5071359;28;20909;-53
2022/02/15 01:16:50;;;;;;;4.30;1.30;;;7.40;99.90;;;;;;5070543;28;20392;-53
2022/02/15 01:19:16;;;;;;;4.00;1.13;;;7.40;99.90;;;;;;5071256;28;20407;-52
2022/02/15 01:21:42;;;;;;;5.30;1.20;;;7.50;99.90;;;;;;5070229;28;20750;-56
2022/02/15 01:24:07;;;;;;;5.10;1.27;;;7.40;99.90;;;;;;5071032;28;20478;-54
2022/02/15 01:26:33;;;;;;;3.90;1.10;;;9.00;99.90;;;;;;5071079;28;20392;-54
2022/02/15 01:28:59;;;;;;;4.27;1.37;;;7.50;99.90;;;;;;5070075;28;20467;-54
2022/02/15 01:31:24;;;;;;;5.75;1.40;;;7.40;99.90;;;;;;5071034;28;20922;-54
2022/02/15 01:33:50;;;;;;;5.33;1.40;;;7.40;99.90;;;;;;5070183;28;20379;-55
2022/02/15 01:36:16;;;;;;;4.50;1.70;;;9.00;99.90;;;;;;5070976;28;20467;-54
2022/02/15 01:38:42;;;;;;;4.90;1.50;;;7.40;99.90;;;;;;5070286;28;20375;-58
2022/02/15 01:41:09;;;;;;;4.72;1.40;;;7.30;99.90;;;;;;5070823;28;20383;-55
2022/02/15 01:43:42;;;;;;;4.30;1.30;;;7.60;99.90;;;;;;5070487;28;20408;-52
2022/02/15 01:46:09;;;;;;;4.38;1.38;;;8.90;99.90;;;;;;5070753;28;20525;-52
2022/02/15 01:48:36;;;;;;;4.65;1.00;;;7.00;99.90;;;;;;5070527;28;20888;-52
2022/02/15 01:51:05;;;;;;;5.90;1.30;;;7.00;99.90;;;;;;5069607;28;20380;-52
2022/02/15 01:53:31;;;;;;;4.22;1.40;;;7.30;99.90;;;;;;5069114;28;20524;-53
2022/02/15 01:55:57;;;;;;;4.33;1.50;;;7.00;99.90;;;;;;5069627;28;20916;-52
2022/02/15 01:58:23;;;;;;;4.70;1.60;;;6.90;99.90;;;;;;5069382;28;20387;-53
2022/02/15 02:00:51;;;;;;;4.80;1.40;;;7.00;99.90;;;;;;5065976;28;20388;-52
2022/02/15 02:03:16;;;;;;;5.40;1.70;;;8.30;99.90;;;;;;5067457;28;20539;-52
2022/02/15 02:05:48;;;;;;;4.40;1.30;;;7.00;99.90;;;;;;5068897;28;20410;-55
2022/02/15 02:08:21;;;;;;;4.78;1.70;;;7.20;99.90;;;;;;5070048;28;20376;-52
2022/02/15 02:10:48;;;;;;;5.60;1.60;;;7.10;99.90;;;;;;5069219;28;20444;-53
2022/02/15 02:13:14;;;;;;;5.82;1.50;;;7.10;99.90;;;;;;5067402;28;20873;-52
2022/02/15 02:15:42;;;;;;;5.30;1.60;;;7.20;99.90;;;;;;5069895;28;20372;-55
2022/02/15 02:18:07;;;;;;;4.55;1.50;;;7.20;99.90;;;;;;5069876;28;20411;-53
2022/02/15 02:20:33;;;;;;;4.80;1.40;;;7.20;99.90;;;;;;5069941;28;20730;-53
2022/02/15 02:22:59;;;;;;;4.50;1.45;;;7.20;99.90;;;;;;5069235;28;21066;-52
2022/02/15 02:25:25;;;;;;;5.00;1.50;;;7.30;99.90;;;;;;5069985;28;20375;-53
2022/02/15 02:27:51;;;;;;;4.90;1.60;;;7.30;99.90;;;;;;5067263;28;20428;-53
2022/02/15 02:30:17;;;;;;;5.00;1.52;;;7.30;99.90;;;;;;5069693;28;20907;-52
2022/02/15 02:32:43;;;;;;;5.43;1.80;;;7.30;99.90;;;;;;5069449;28;20475;-54
2022/02/15 02:35:10;;;;;;;4.70;1.63;;;7.20;99.90;;;;;;5069741;28;20471;-52
2022/02/15 02:37:37;;;;;;;4.82;1.65;;;7.10;99.90;;;;;;5066830;28;20391;-53
2022/02/15 02:40:06;;;;;;;6.60;1.70;;;7.00;99.90;;;;;;5068853;28;20459;-52
2022/02/15 02:42:33;;;;;;;5.73;1.63;;;6.90;99.90;;;;;;5069594;28;20463;-52
2022/02/15 02:45:03;;;;;;;4.75;1.73;;;6.80;99.90;;;;;;5068546;28;20416;-52
2022/02/15 02:47:29;;;;;;;4.95;1.75;;;6.70;99.90;;;;;;5069571;28;20472;-53
2022/02/15 02:49:55;;;;;;;5.85;1.80;;;6.60;99.90;;;;;;5068495;28;20857;-52
2022/02/15 02:52:23;;;;;;;4.60;1.67;;;6.50;99.90;;;;;;5069473;28;20466;-52
2022/02/15 02:54:49;;;;;;;4.90;1.80;;;6.60;99.90;;;;;;5068763;28;20388;-52
2022/02/15 02:57:15;;;;;;;6.27;1.70;;;6.60;99.90;;;;;;5069538;28;20379;-53
2022/02/15 02:59:43;;;;;;;6.03;1.63;;;6.50;99.90;;;;;;5069437;28;20695;-55
2022/02/15 03:02:09;;;;;;;4.72;1.67;;;6.50;99.90;;;;;;5069150;28;20463;-53
2022/02/15 03:04:36;;;;;;;4.85;1.90;;;8.10;99.90;;;;;;5069076;28;20399;-53
2022/02/15 03:07:02;;;;;;;7.40;1.80;;;7.90;99.90;;;;;;5068517;28;20376;-53
2022/02/15 03:09:28;;;;;;;5.53;1.80;;;6.50;99.90;;;;;;5069589;28;20388;-54
2022/02/15 03:11:54;;;;;;;6.00;1.60;;;6.60;99.90;;;;;;5068670;28;20926;-52
2022/02/15 03:14:19;;;;;;;5.97;2.00;;;6.50;99.90;;;;;;5069270;28;20412;-52
2022/02/15 03:16:45;;;;;;;5.10;1.80;;;6.60;99.90;;;;;;5068515;28;20379;-53
2022/02/15 03:19:11;;;;;;;5.50;1.70;;;6.50;99.90;;;;;;5069453;28;20404;-52
2022/02/15 03:21:37;;;;;;;5.90;1.80;;;6.60;99.90;;;;;;5069443;28;20396;-53
2022/02/15 03:24:03;;;;;;;5.97;1.80;;;6.60;99.90;;;;;;5068431;28;20395;-52
2022/02/15 03:26:28;;;;;;;5.10;2.08;;;6.70;99.90;;;;;;5069205;28;20411;-52
2022/02/15 03:28:54;;;;;;;6.07;1.90;;;6.70;99.90;;;;;;5068645;28;20795;-53
2022/02/15 03:31:20;;;;;;;4.50;1.77;;;6.80;99.90;;;;;;5068938;28;20395;-52
2022/02/15 03:33:46;;;;;;;6.47;2.10;;;6.80;99.90;;;;;;5068331;28;20530;-52
2022/02/15 03:36:13;;;;;;;7.20;2.10;;;6.80;99.90;;;;;;5069226;28;20458;-52
2022/02/15 03:38:39;;;;;;;5.10;1.83;;;6.90;99.90;;;;;;5069401;28;20456;-52
2022/02/15 03:43:50;;;;;;;6.28;2.15;;;6.90;99.90;;;;;;5066677;28;20394;-53
2022/02/15 03:46:15;;;;;;;5.25;1.90;;;6.80;99.90;;;;;;5068981;28;20392;-53
2022/02/15 03:48:41;;;;;;;5.77;2.10;;;6.90;99.90;;;;;;5065486;28;20410;-55
2022/02/15 03:51:07;;;;;;;6.20;1.90;;;6.80;99.90;;;;;;5059824;28;20390;-52
2022/02/15 03:53:33;;;;;;;6.20;2.00;;;6.80;99.90;;;;;;5068524;28;20391;-52
2022/02/15 03:55:58;;;;;;;6.88;2.47;;;6.80;99.90;;;;;;5067850;28;20449;-52
2022/02/15 03:58:24;;;;;;;5.00;2.00;;;6.80;99.90;;;;;;5068713;28;20391;-52
2022/02/15 04:00:50;;;;;;;5.40;2.03;;;6.80;99.90;;;;;;5068028;28;20869;-54
2022/02/15 04:03:16;;;;;;;5.45;2.05;;;7.10;99.90;;;;;;5068712;28;20481;-55
2022/02/15 04:05:42;;;;;;;5.95;1.92;;;6.90;99.90;;;;;;5068295;28;20384;-57
2022/02/15 04:08:07;;;;;;;6.40;1.90;;;7.00;99.90;;;;;;5068127;28;20955;-54
2022/02/15 04:10:33;;;;;;;7.57;2.60;;;6.90;99.90;;;;;;5048403;28;20749;-54
2022/02/15 04:12:59;;;;;;;7.40;2.80;;;6.90;99.90;;;;;;5066066;28;20416;-55
2022/02/15 04:15:24;;;;;;;6.28;2.30;;;6.70;99.90;;;;;;5066245;28;20380;-54
2022/02/15 04:17:50;;;;;;;6.43;2.27;;;6.70;99.90;;;;;;5070751;28;20469;-54
2022/02/15 04:20:16;;;;;;;6.75;2.28;;;6.70;99.90;;;;;;5072319;28;20371;-55
2022/02/15 04:22:42;;;;;;;6.72;2.20;;;7.40;99.90;;;;;;5071911;28;20376;-56
2022/02/15 04:25:10;;;;;;;8.00;2.40;;;6.70;99.90;;;;;;5053784;28;20892;-54
2022/02/15 04:27:36;;;;;;;9.20;2.35;;;6.60;99.90;;;;;;5072148;28;20394;-54
2022/02/15 04:30:02;;;;;;;6.13;2.30;;;6.70;99.90;;;;;;5071379;28;20368;-54
2022/02/15 04:32:28;;;;;;;9.82;3.28;;;6.80;99.90;;;;;;5070017;28;20392;-54
2022/02/15 04:34:53;;;;;;;7.43;2.80;;;6.70;99.90;;;;;;5056128;28;20396;-54
2022/02/15 04:37:19;;;;;;;5.63;2.00;;;6.80;99.90;;;;;;5052523;28;20746;-54
2022/02/15 04:39:46;;;;;;;6.85;2.30;;;6.80;99.90;;;;;;5058770;28;20890;-57
2022/02/15 04:42:12;;;;;;;7.50;2.70;;;6.70;99.90;;;;;;5071027;28;20904;-54
2022/02/15 04:44:37;;;;;;;6.87;2.20;;;6.70;99.90;;;;;;5072176;28;20403;-55
2022/02/15 04:47:04;;;;;;;7.10;2.30;;;6.70;99.90;;;;;;5071311;28;20390;-55
2022/02/15 04:49:30;;;;;;;9.10;3.63;;;6.70;99.90;;;;;;5054447;28;20372;-54
2022/02/15 04:51:56;;;;;;;6.20;2.58;;;6.70;99.90;;;;;;5069528;28;20479;-54
2022/02/15 04:54:22;;;;;;;7.63;2.28;;;6.70;99.90;;;;;;5072029;28;20914;-52
2022/02/15 04:56:52;;;;;;;7.10;2.40;;;6.70;99.90;;;;;;5071209;28;20842;-53
2022/02/15 04:59:19;;;;;;;5.50;2.30;;;6.80;99.90;;;;;;5071753;28;20411;-52
2022/02/15 05:01:45;;;;;;;6.93;2.40;;;6.80;99.90;;;;;;5067009;28;20391;-56
2022/02/15 05:06:55;;;;;;;7.47;2.00;;;6.90;99.90;;;;;;5070828;28;20433;-52
2022/02/15 05:09:21;;;;;;;6.70;2.70;;;6.90;99.90;;;;;;5071825;28;20443;-53
2022/02/15 05:11:46;;;;;;;6.10;2.05;;;6.80;99.90;;;;;;5071283;28;20395;-55
2022/02/15 05:14:12;;;;;;;8.00;2.10;;;6.80;99.90;;;;;;5051700;28;20451;-52
2022/02/15 05:16:38;;;;;;;7.30;2.10;;;6.80;99.90;;;;;;5058290;28;20746;-52
2022/02/15 05:19:03;;;;;;;6.40;2.38;;;6.90;99.90;;;;;;5063025;28;20444;-53
2022/02/15 05:21:29;;;;;;;9.23;2.20;;;6.90;99.90;;;;;;5051543;28;20417;-52
2022/02/15 05:23:54;;;;;;;6.38;1.90;;;6.80;99.90;;;;;;5050581;28;20754;-52
2022/02/15 05:26:20;;;;;;;5.90;1.97;;;6.80;99.90;;;;;;5058624;28;20880;-54
2022/02/15 05:28:46;;;;;;;4.57;1.60;;;6.80;99.90;;;;;;5057434;28;20408;-56
2022/02/15 05:31:11;;;;;;;7.30;1.90;;;6.80;99.90;;;;;;5063964;28;20403;-54
2022/02/15 05:33:37;;;;;;;7.82;1.70;;;6.80;99.90;;;;;;5071448;28;20388;-52
2022/02/15 05:36:03;;;;;;;5.60;1.70;;;6.90;99.90;;;;;;5070684;28;20738;-53
2022/02/15 05:38:28;;;;;;;4.38;1.60;;;7.00;99.90;;;;;;5066220;28;20953;-53
2022/02/15 05:40:54;;;;;;;9.18;1.65;;;7.00;99.90;;;;;;5062275;28;20843;-54
2022/02/15 05:43:20;;;;;;;11.60;1.70;;;7.00;99.90;;;;;;5070755;28;20842;-53
2022/02/15 05:45:46;;;;;;;4.90;1.40;;;7.00;99.90;;;;;;5075731;28;20381;-56
2022/02/15 05:48:11;;;;;;;6.15;1.70;;;8.30;99.90;;;;;;5063856;28;20496;-53
2022/02/15 05:50:49;;;;;;;4.90;1.30;;;7.00;99.90;;;;;;5062029;28;20473;-53
2022/02/15 05:53:15;;;;;;;5.83;1.50;;;7.00;99.90;;;;;;5065435;28;20966;-53
2022/02/15 05:55:40;;;;;;;4.93;1.50;;;7.00;99.90;;;;;;5069043;28;20477;-53
2022/02/15 05:58:06;;;;;;;5.85;1.50;;;7.00;99.90;;;;;;5069164;28;20588;-53
2022/02/15 06:00:33;;;;;;;5.30;1.70;;;6.90;99.90;;;;;;5065115;28;20496;-53
2022/02/15 06:02:59;;;;;;;5.05;1.90;;;7.00;99.90;;;;;;5068262;28;20387;-54
2022/02/15 06:05:27;;;;;;;5.60;1.60;;;6.90;99.90;;;;;;5072120;28;20431;-53
2022/02/15 06:07:53;;;;;;;5.13;1.40;;;7.40;99.90;;;;;;5062660;28;20396;-53
2022/02/15 06:10:18;;;;;;;6.75;1.90;;;6.90;99.90;;;;;;5063681;28;20404;-52
2022/02/15 06:12:44;;;;;;;5.57;1.80;;;6.80;99.90;;;;;;5069791;28;20434;-56
2022/02/15 06:15:11;;;;;;;6.37;2.20;;;6.80;99.90;;;;;;5068434;28;20387;-53
2022/02/15 06:17:37;;;;;;;6.85;1.80;;;6.80;99.90;;;;;;5068712;28;20396;-53
2022/02/15 06:20:03;;;;;;;5.80;1.70;;;6.80;99.90;;;;;;5069189;28;20426;-53
2022/02/15 06:22:29;;;;;;;5.47;1.80;;;6.80;99.90;;;;;;5069535;28;20416;-52
2022/02/15 06:24:55;;;;;;;5.00;1.70;;;6.80;99.90;;;;;;5069175;28;20443;-53
2022/02/15 06:27:22;;;;;;;6.82;2.05;;;6.70;99.90;;;;;;5065327;28;20431;-53
2022/02/15 06:29:48;;;;;;;6.27;1.80;;;6.80;99.90;;;;;;5069037;28;20380;-57
2022/02/15 06:32:13;;;;;;;5.25;1.85;;;6.90;99.90;;;;;;5068343;28;20391;-53
2022/02/15 06:34:39;;;;;;;5.23;1.67;;;6.90;99.90;;;;;;5068898;28;20429;-53
2022/02/15 06:37:04;;;;;;;6.30;2.00;;;6.90;99.90;;;;;;5061959;28;20413;-53
2022/02/15 06:39:30;;;;;;;6.00;2.40;;;6.90;99.90;;;;;;5067832;28;20478;-53
2022/02/15 06:41:56;;;;;;;7.18;2.20;;;6.90;99.90;;;;;;5060576;28;20470;-52
2022/02/15 06:44:21;;;;;;;4.93;1.70;;;6.90;99.90;;;;;;5055830;28;20397;-53
2022/02/15 06:46:47;;;;;;;5.70;1.70;;;6.70;99.90;;;;;;5049381;28;20739;-56
2022/02/15 06:49:13;;;;;;;5.45;1.92;;;6.70;99.90;;;;;;5049558;28;20393;-53
2022/02/15 06:51:39;;;;;;;4.77;1.60;;;6.70;99.90;;;;;;5049758;28;20385;-53
2022/02/15 06:54:04;;;;;;;5.30;1.85;;;6.80;99.90;;;;;;5048790;28;20389;-53
2022/02/15 06:56:30;;;;;;;5.00;1.90;;;6.70;99.90;;;;;;5049818;28;20931;-59
2022/02/15 06:58:56;;;;;;;5.43;1.83;;;6.60;99.90;;;;;;5049063;28;20483;-53
2022/02/15 07:01:22;;;;;;;6.97;2.10;;;6.60;99.90;;;;;;5050022;28;20534;-53
2022/02/15 07:03:47;;;;;;;5.60;2.00;;;6.70;99.90;;;;;;5052504;28;20404;-57
2022/02/15 07:06:13;;;;;;;5.20;2.00;;;6.60;99.90;;;;;;5066828;28;20880;-53
2022/02/15 07:08:41;;;;;;;5.20;2.00;;;6.50;99.90;;;;;;5069990;28;20490;-53
2022/02/15 07:11:07;;;;;;;5.10;1.80;;;6.60;99.90;;;;;;5048802;28;21079;-52
2022/02/15 07:13:32;;;;;;;6.80;2.15;;;6.60;99.90;;;;;;5054448;28;20387;-53
2022/02/15 07:15:58;;;;;;;4.73;1.60;;;6.80;99.90;;;;;;5067537;28;20368;-53
2022/02/15 07:18:26;;;;;;;5.00;1.90;;;6.70;99.90;;;;;;5069171;28;20411;-53
2022/02/15 07:20:51;;;;;;;5.63;1.93;;;6.70;99.90;;;;;;5059084;28;20405;-53
2022/02/15 07:23:17;;;;;;;5.45;1.90;;;6.80;99.90;;;;;;5069150;28;20400;-53
2022/02/15 07:25:43;;;;;;;4.80;2.07;;;6.80;99.90;;;;;;5056450;28;20391;-53
2022/02/15 07:28:08;;;;;;;4.85;1.73;;;7.00;99.90;;;;;;5066492;28;20754;-53
2022/02/15 07:30:35;;;;;;;5.87;1.90;;;7.10;99.90;;;;;;5066952;28;20425;-53
2022/02/15 07:33:02;;;;;;;5.50;1.90;;;7.00;99.90;;;;;;5057126;28;20396;-53
2022/02/15 07:35:28;;;;;;;6.30;1.80;;;7.10;99.90;;;;;;5049025;28;20381;-53
2022/02/15 07:37:53;;;;;;;5.20;1.80;;;7.20;99.90;;;;;;5066011;28;20479;-54
2022/02/15 07:40:21;;;;;;;4.70;1.60;;;7.30;99.90;;;;;;5069313;28;20844;-53
2022/02/15 07:42:48;;;;;;;4.80;1.80;;;9.00;99.90;;;;;;5069531;28;20419;-57
2022/02/15 07:45:19;;;;;;;4.90;1.30;;;7.30;99.90;;;;;;5066219;28;20492;-53
2022/02/15 07:47:46;;;;;;;4.30;1.40;;;7.40;99.90;;;;;;5059193;28;20402;-53
2022/02/15 07:50:13;;;;;;;7.05;1.70;;;7.50;99.90;;;;;;5068917;28;20423;-54
2022/02/15 07:52:38;;;;;;;5.10;1.67;;;7.60;99.90;;;;;;5053822;28;20382;-53
2022/02/15 07:55:04;;;;;;;4.72;1.40;;;7.70;99.90;;;;;;5063580;28;20737;-54
2022/02/15 07:57:30;;;;;;;4.30;1.23;;;7.70;99.90;;;;;;5078880;28;20743;-54
2022/02/15 07:59:56;;;;;;;4.20;1.47;;;7.80;99.90;;;;;;5074677;28;20380;-53
2022/02/15 08:02:21;;;;;;;4.20;1.40;;;7.90;99.90;;;;;;5076979;28;20392;-54
2022/02/15 08:04:47;;;;;;;3.70;1.10;;;7.90;99.90;;;;;;5070595;28;20411;-56
2022/02/15 08:07:13;;;;;;;5.70;1.20;;;8.10;99.90;;;;;;5073505;28;20456;-53
2022/02/15 08:09:38;;;;;;;4.00;1.20;;;8.20;99.90;;;;;;5072622;28;20725;-52
2022/02/15 08:12:09;;;;;;;4.30;1.10;;;8.30;99.90;;;;;;5072122;28;20492;-52
2022/02/15 08:14:35;;;;;;;4.32;1.20;;;8.20;99.90;;;;;;5072359;28;20407;-52
2022/02/15 08:17:01;;;;;;;3.70;0.90;;;8.00;99.90;;;;;;5071850;28;20383;-53
2022/02/15 08:19:27;;;;;;;4.30;1.30;;;8.00;99.90;;;;;;5072306;28;20419;-54
2022/02/15 08:21:56;;;;;;;5.70;1.30;;;8.10;99.90;;;;;;5071632;28;20757;-54
2022/02/15 08:24:22;;;;;;;5.50;1.50;;;8.20;99.90;;;;;;5072654;28;20411;-54
2022/02/15 08:26:49;;;;;;;5.25;1.40;;;8.50;99.90;;;;;;5071955;28;20376;-57
2022/02/15 08:29:14;;;;;;;5.18;1.50;;;8.60;99.90;;;;;;5072408;28;20874;-54
2022/02/15 08:31:40;;;;;;;4.20;1.40;;;8.90;99.90;;;;;;5074526;28;20488;-54
2022/02/15 08:34:06;;;;;;;4.70;1.30;;;9.30;99.90;;;;;;5073820;28;20383;-54
2022/02/15 08:36:31;;;;;;;5.20;1.43;;;9.10;99.90;;;;;;5092106;28;20422;-54
2022/02/15 08:38:57;;;;;;;4.90;1.50;;;8.90;99.90;;;;;;5091680;28;20744;-53
2022/02/15 08:41:23;;;;;;;4.57;1.30;;;8.50;99.90;;;;;;5079950;28;20379;-54
2022/02/15 08:43:49;;;;;;;5.05;1.60;;;9.00;99.90;;;;;;5069776;28;20409;-57
2022/02/15 08:46:14;;;;;;;5.27;1.60;;;9.10;99.90;;;;;;5071657;28;20423;-54
2022/02/15 08:48:40;;;;;;;5.05;1.67;;;9.50;99.90;;;;;;5070762;28;20414;-58
2022/02/15 08:51:07;;;;;;;5.03;1.50;;;10.00;99.90;;;;;;5071450;28;20454;-55
2022/02/15 08:53:32;;;;;;;4.80;1.48;;;10.10;99.90;;;;;;5088241;28;20382;-54
2022/02/15 08:55:58;;;;;;;4.40;1.30;;;9.50;99.90;;;;;;5075979;28;20460;-53
2022/02/15 08:58:24;;;;;;;5.05;1.40;;;9.30;99.90;;;;;;5082824;28;20884;-55
2022/02/15 09:00:49;;;;;;;5.38;1.90;;;9.10;99.90;;;;;;5084125;28;20440;-57
2022/02/15 09:03:15;;;;;;;5.57;2.17;;;9.00;99.90;;;;;;5070593;28;20459;-54
2022/02/15 09:05:41;;;;;;;5.40;2.28;;;9.00;99.90;;;;;;5071481;28;20388;-54
2022/02/15 09:08:07;;;;;;;6.72;2.80;;;8.60;99.90;;;;;;5070728;28;20391;-54
2022/02/15 09:10:34;;;;;;;7.23;2.83;;;8.20;99.90;;;;;;5071818;28;20380;-55
2022/02/15 09:12:59;;;;;;;6.53;3.10;;;8.40;99.90;;;;;;5070858;28;20467;-54
2022/02/15 09:15:25;;;;;;;8.63;3.15;;;8.80;99.90;;;;;;5071913;28;20463;-54
2022/02/15 09:17:51;;;;;;;7.40;3.10;;;9.10;99.90;;;;;;5070845;28;20457;-57
2022/02/15 09:20:16;;;;;;;8.25;3.15;;;9.10;99.90;;;;;;5072055;28;20391;-54
2022/02/15 09:22:42;;;;;;;6.70;2.93;;;9.10;99.90;;;;;;5071193;28;20413;-54
2022/02/15 09:25:10;;;;;;;7.55;3.28;;;9.00;99.90;;;;;;5070727;28;20414;-54
2022/02/15 09:27:35;;;;;;;8.43;4.00;;;8.90;99.90;;;;;;5071365;28;20403;-54
2022/02/15 09:30:01;;;;;;;7.88;3.55;;;9.10;99.90;;;;;;5070796;28;20363;-54
2022/02/15 09:32:27;;;;;;;6.82;3.22;;;9.90;99.90;;;;;;5071357;28;20388;-55
2022/02/15 09:34:52;;;;;;;8.83;3.70;;;10.00;99.90;;;;;;5070450;28;20383;-54
2022/02/15 09:37:18;;;;;;;8.90;4.00;;;9.50;99.90;;;;;;5070881;28;20383;-53
2022/02/15 09:39:44;;;;;;;8.10;3.70;;;9.40;99.90;;;;;;5071159;28;20857;-54
2022/02/15 09:42:09;;;;;;;10.45;4.70;;;9.80;99.90;;;;;;5070425;28;20485;-54
2022/02/15 09:44:35;;;;;;;8.97;4.00;;;10.10;99.90;;;;;;5071097;28;20586;-54
2022/02/15 09:47:01;;;;;;;9.35;4.10;;;10.10;99.90;;;;;;5070231;28;20412;-55
2022/02/15 09:52:14;;;;;;;8.40;4.10;;;10.00;99.90;;;;;;5070362;28;20379;-56
2022/02/15 09:54:42;;;;;;;11.13;3.80;;;10.80;99.90;;;;;;5070853;28;20414;-56
2022/02/15 09:57:08;;;;;;;8.75;3.40;;;9.90;99.90;;;;;;5070018;28;20384;-54
2022/02/15 09:59:34;;;;;;;7.05;3.30;;;9.80;99.90;;;;;;5070848;28;20395;-55
2022/02/15 10:02:05;;;;;;;8.53;3.27;;;10.30;99.90;;;;;;5069985;28;20387;-54
2022/02/15 10:04:33;;;;;;;6.75;3.15;;;10.10;99.90;;;;;;5070875;28;20426;-53
2022/02/15 10:07:04;;;;;;;7.20;3.40;;;9.90;99.90;;;;;;5069883;28;20379;-53
2022/02/15 10:09:30;;;;;;;8.25;2.85;;;9.70;99.90;;;;;;5070364;28;20500;-53
2022/02/15 10:12:10;;;;;;;6.72;2.70;;;10.60;99.90;;;;;;5070010;28;20451;-55
2022/02/15 10:14:42;;;;;;;5.63;2.20;;;9.20;99.90;;;;;;5069703;28;20384;-54
2022/02/15 10:17:09;;;;;;;6.65;2.70;;;8.90;99.90;;;;;;5069786;28;20387;-54
2022/02/15 10:19:35;;;;;;;6.75;2.60;;;9.20;99.90;;;;;;5070183;28;20404;-54
2022/02/15 10:22:04;;;;;;;5.60;2.40;;;9.10;99.90;;;;;;5069980;28;20398;-53
2022/02/15 10:24:35;;;;;;;7.75;2.83;;;8.60;99.90;;;;;;5070367;28;20399;-53
2022/02/15 10:27:03;;;;;;;7.07;2.50;;;8.70;99.90;;;;;;5051574;28;20402;-54
2022/02/15 10:29:32;;;;;;;7.80;2.53;;;9.60;99.90;;;;;;5070358;28;20386;-55
2022/02/15 10:31:59;;;;;;;6.10;2.65;;;10.80;99.90;;;;;;5069606;28;20406;-54
2022/02/15 10:34:26;;;;;;;6.87;2.60;;;12.50;99.90;;;;;;5070406;28;20382;-54
2022/02/15 10:37:02;;;;;;;5.80;2.30;;;13.30;99.90;;;;;;5069742;28;20383;-57
2022/02/15 10:39:51;;;;;;;6.32;2.30;;;12.50;99.90;;;;;;5069779;28;20398;-54
2022/02/15 10:42:22;;;;;;;6.05;2.60;;;11.70;99.90;;;;;;5069925;28;20380;-54
2022/02/15 10:44:51;;;;;;;7.13;2.22;;;10.80;99.90;;;;;;5069860;28;20403;-54
2022/02/15 10:47:16;;;;;;;7.43;2.40;;;10.00;99.90;;;;;;5069448;28;20460;-54
2022/02/15 10:49:43;;;;;;;5.70;2.40;;;9.70;99.90;;;;;;5069964;28;20416;-54
2022/02/15 10:52:10;;;;;;;9.10;2.83;;;9.20;99.90;;;;;;5069347;28;20383;-54
2022/02/15 10:54:37;;;;;;;7.00;2.50;;;9.30;99.90;;;;;;5069675;28;20395;-54
2022/02/15 10:57:04;;;;;;;7.30;2.70;;;9.30;99.90;;;;;;5069118;28;20526;-54
2022/02/15 10:59:33;;;;;;;7.50;2.70;;;9.20;99.90;;;;;;5068294;28;20423;-54
2022/02/15 11:02:01;;;;;;;6.88;2.60;;;9.20;99.90;;;;;;5069291;28;20380;-54
2022/02/15 11:04:31;;;;;;;6.93;2.57;;;9.20;99.90;;;;;;5069594;28;20439;-54
2022/02/15 11:06:57;;;;;;;7.20;2.90;;;9.20;99.90;;;;;;5069035;28;20375;-54
2022/02/15 11:09:30;;;;;;;6.70;2.60;;;9.30;99.90;;;;;;5069704;28;20893;-54
2022/02/15 11:12:05;;;;;;;8.20;3.40;;;9.60;99.90;;;;;;5068690;28;20425;-54
2022/02/15 11:14:31;;;;;;;7.68;2.40;;;10.30;99.90;;;;;;5069461;28;20402;-54
2022/02/15 11:16:57;;;;;;;5.80;2.00;;;10.20;99.90;;;;;;5050868;28;20392;-54
2022/02/15 11:19:33;;;;;;;5.60;1.83;;;10.00;99.90;;;;;;5069420;28;20950;-54
2022/02/15 11:21:59;;;;;;;6.30;1.90;;;9.60;99.90;;;;;;5068904;28;20442;-54
2022/02/15 11:24:24;;;;;;;5.40;1.80;;;9.30;99.90;;;;;;5069526;28;20422;-55
2022/02/15 11:26:50;;;;;;;5.10;1.60;;;9.10;99.90;;;;;;5075136;28;20849;-57
2022/02/15 11:29:24;;;;;;;6.90;2.10;;;8.90;99.90;;;;;;5075934;28;20382;-55
2022/02/15 11:31:50;;;;;;;5.55;1.80;;;9.00;99.90;;;;;;5076488;28;20748;-54
2022/02/15 11:34:16;;;;;;;5.38;1.88;;;9.10;99.90;;;;;;5075137;28;20478;-54
2022/02/15 11:36:53;;;;;;;5.47;1.80;;;8.90;99.90;;;;;;5076293;28;20745;-54
2022/02/15 11:39:21;;;;;;;5.53;1.97;;;8.80;99.90;;;;;;5075534;28;20376;-54
2022/02/15 11:41:49;;;;;;;5.22;1.98;;;8.90;99.90;;;;;;5075655;28;20387;-54
2022/02/15 11:44:15;;;;;;;5.43;2.10;;;9.00;99.90;;;;;;5057425;28;20418;-55
2022/02/15 11:46:46;;;;;;;5.45;2.20;;;8.90;99.90;;;;;;5076074;28;20384;-55
2022/02/15 11:49:17;;;;;;;5.40;1.90;;;8.80;99.90;;;;;;5074876;28;20383;-54
2022/02/15 11:51:45;;;;;;;6.57;2.50;;;8.70;99.90;;;;;;5075951;28;20379;-54
2022/02/15 11:54:13;;;;;;;7.40;2.38;;;8.80;99.90;;;;;;5074820;28;20394;-54
2022/02/15 11:56:43;;;;;;;5.50;1.97;;;8.90;99.90;;;;;;5075299;28;20375;-55
2022/02/15 11:59:19;;;;;;;5.70;1.90;;;8.80;99.90;;;;;;5057102;28;20390;-54
2022/02/15 12:02:03;;;;;;;6.28;2.30;;;8.80;99.90;;;;;;5075687;28;20392;-54
2022/02/15 12:04:29;;;;;;;6.60;2.60;;;8.90;99.90;;;;;;5075355;28;20966;-55
2022/02/15 12:07:02;;;;;;;7.65;2.30;;;9.10;99.90;;;;;;5075540;28;20900;-57
2022/02/15 12:09:34;;;;;;;5.00;1.90;;;9.40;99.90;;;;;;5075734;28;20387;-55
2022/02/15 12:12:00;;;;;;;5.80;1.90;;;9.60;99.90;;;;;;5074962;28;20383;-54
2022/02/15 12:14:27;;;;;;;5.50;1.90;;;9.70;99.90;;;;;;5075864;28;20419;-56
2022/02/15 12:16:53;;;;;;;5.25;2.03;;;9.70;99.90;;;;;;5075537;28;20406;-57
2022/02/15 12:19:33;;;;;;;6.82;1.70;;;10.20;99.90;;;;;;5075484;28;20884;-55
2022/02/15 12:22:20;;;;;;;5.78;1.90;;;10.60;99.90;;;;;;5075258;28;20384;-55
2022/02/15 12:24:53;;;;;;;7.57;1.70;;;10.70;99.90;;;;;;5075732;28;20408;-55
2022/02/15 12:27:21;;;;;;;6.13;2.10;;;10.20;99.90;;;;;;5075798;28;20379;-55
2022/02/15 12:29:51;;;;;;;7.32;2.20;;;10.20;99.90;;;;;;5075507;28;20467;-55
2022/02/15 12:32:22;;;;;;;7.32;2.65;;;10.10;99.90;;;;;;5075368;28;20403;-55
2022/02/15 12:34:48;;;;;;;5.30;2.10;;;10.10;99.90;;;;;;5075682;28;20384;-55
2022/02/15 12:37:22;;;;;;;6.68;2.40;;;10.10;99.90;;;;;;5073093;28;20953;-55
2022/02/15 12:39:52;;;;;;;5.90;2.00;;;10.10;99.90;;;;;;5072705;28;20372;-55
2022/02/15 12:42:18;;;;;;;7.00;1.80;;;9.70;99.90;;;;;;5071800;28;20841;-55
2022/02/15 12:44:59;;;;;;;6.68;1.75;;;9.40;99.90;;;;;;5072124;28;20884;-54
2022/02/15 12:47:30;;;;;;;6.75;2.33;;;9.40;99.90;;;;;;5071936;28;20883;-55
2022/02/15 12:49:57;;;;;;;6.88;2.70;;;9.40;99.90;;;;;;5071761;28;20383;-58
2022/02/15 12:52:25;;;;;;;6.63;2.20;;;9.30;99.90;;;;;;5072251;28;20387;-55
2022/02/15 12:54:59;;;;;;;9.73;2.22;;;9.50;99.90;;;;;;5072067;28;20376;-55
2022/02/15 12:57:26;;;;;;;7.20;2.90;;;9.50;99.90;;;;;;5072157;28;20395;-55
2022/02/15 12:59:57;;;;;;;8.90;3.00;;;9.40;99.90;;;;;;5071894;28;20484;-58
2022/02/15 13:02:26;;;;;;;6.95;2.60;;;9.40;99.90;;;;;;5072148;28;20384;-55